sensor_id;sensor_type;location;lat;lon;timestamp;P1;durP1;ratioP1;P2;durP2;ratioP2
23642;SDS011;11998;55.788;37.572;2023-06-10T00:00:40;4.70;;;3.60;;
23642;SDS011;11998;55.788;37.572;2023-06-10T00:01:44;4.77;;;3.37;;
23642;SDS011;11998;55.788;37.572;2023-06-10T00:02:47;5.83;;;3.37;;
23642;SDS011;11998;55.788;37.572;2023-06-10T00:03:47;5.73;;;3.63;;
23642;SDS011;11998;55.788;37.572;2023-06-10T00:04:48;6.23;;;3.80;;
23642;SDS011;11998;55.788;37.572;2023-06-10T00:05:48;6.07;;;3.73;;
23642;SDS011;11998;55.788;37.572;2023-06-10T00:06:49;6.63;;;4.07;;
23642;SDS011;11998;55.788;37.572;2023-06-10T00:07:50;4.53;;;4.10;;
23642;SDS011;11998;55.788;37.572;2023-06-10T00:08:51;6.53;;;3.87;;
23642;SDS011;11998;55.788;37.572;2023-06-10T00:09:51;4.17;;;3.70;;
23642;SDS011;11998;55.788;37.572;2023-06-10T00:10:52;5.20;;;3.73;;
23642;SDS011;11998;55.788;37.572;2023-06-10T00:11:52;6.00;;;3.83;;
23642;SDS011;11998;55.788;37.572;2023-06-10T00:12:53;5.27;;;4.30;;
23642;SDS011;11998;55.788;37.572;2023-06-10T00:13:53;6.00;;;3.67;;
23642;SDS011;11998;55.788;37.572;2023-06-10T00:14:54;8.00;;;3.93;;
23642;SDS011;11998;55.788;37.572;2023-06-10T00:15:54;8.13;;;4.00;;
23642;SDS011;11998;55.788;37.572;2023-06-10T00:16:55;5.27;;;4.00;;
23642;SDS011;11998;55.788;37.572;2023-06-10T00:17:57;7.13;;;3.90;;
23642;SDS011;11998;55.788;37.572;2023-06-10T00:19:00;10.77;;;4.07;;
23642;SDS011;11998;55.788;37.572;2023-06-10T00:20:03;5.50;;;4.20;;
23642;SDS011;11998;55.788;37.572;2023-06-10T00:21:09;4.80;;;3.83;;
23642;SDS011;11998;55.788;37.572;2023-06-10T00:22:10;7.17;;;4.30;;
23642;SDS011;11998;55.788;37.572;2023-06-10T00:23:12;6.13;;;3.83;;
23642;SDS011;11998;55.788;37.572;2023-06-10T00:24:13;7.17;;;4.63;;
23642;SDS011;11998;55.788;37.572;2023-06-10T00:25:14;4.67;;;3.67;;
23642;SDS011;11998;55.788;37.572;2023-06-10T00:26:14;6.57;;;3.77;;
23642;SDS011;11998;55.788;37.572;2023-06-10T00:27:15;3.70;;;3.40;;
23642;SDS011;11998;55.788;37.572;2023-06-10T00:28:16;5.53;;;4.47;;
23642;SDS011;11998;55.788;37.572;2023-06-10T00:29:16;4.70;;;4.20;;
23642;SDS011;11998;55.788;37.572;2023-06-10T00:30:17;5.40;;;4.20;;
23642;SDS011;11998;55.788;37.572;2023-06-10T00:31:17;5.00;;;4.10;;
23642;SDS011;11998;55.788;37.572;2023-06-10T00:32:18;6.30;;;5.67;;
23642;SDS011;11998;55.788;37.572;2023-06-10T00:33:19;11.67;;;7.67;;
23642;SDS011;11998;55.788;37.572;2023-06-10T00:34:19;13.17;;;8.27;;
23642;SDS011;11998;55.788;37.572;2023-06-10T00:35:21;6.83;;;5.27;;
23642;SDS011;11998;55.788;37.572;2023-06-10T00:36:21;10.20;;;8.47;;
23642;SDS011;11998;55.788;37.572;2023-06-10T00:37:22;4.83;;;3.83;;
23642;SDS011;11998;55.788;37.572;2023-06-10T00:38:22;6.23;;;3.87;;
23642;SDS011;11998;55.788;37.572;2023-06-10T00:39:23;6.93;;;3.90;;
23642;SDS011;11998;55.788;37.572;2023-06-10T00:40:24;8.20;;;4.10;;
23642;SDS011;11998;55.788;37.572;2023-06-10T00:41:24;5.23;;;3.67;;
23642;SDS011;11998;55.788;37.572;2023-06-10T00:42:28;5.53;;;4.50;;
23642;SDS011;11998;55.788;37.572;2023-06-10T00:43:28;4.00;;;3.50;;
23642;SDS011;11998;55.788;37.572;2023-06-10T00:44:29;6.67;;;3.87;;
23642;SDS011;11998;55.788;37.572;2023-06-10T00:45:29;6.47;;;3.93;;
23642;SDS011;11998;55.788;37.572;2023-06-10T00:46:31;4.17;;;3.77;;
23642;SDS011;11998;55.788;37.572;2023-06-10T00:47:33;6.70;;;4.00;;
23642;SDS011;11998;55.788;37.572;2023-06-10T00:48:35;6.57;;;4.30;;
23642;SDS011;11998;55.788;37.572;2023-06-10T00:49:36;6.70;;;4.10;;
23642;SDS011;11998;55.788;37.572;2023-06-10T00:50:36;4.20;;;3.80;;
23642;SDS011;11998;55.788;37.572;2023-06-10T00:51:39;4.30;;;3.90;;
23642;SDS011;11998;55.788;37.572;2023-06-10T00:52:39;6.93;;;3.97;;
23642;SDS011;11998;55.788;37.572;2023-06-10T00:53:43;9.37;;;3.93;;
23642;SDS011;11998;55.788;37.572;2023-06-10T00:54:45;6.13;;;3.90;;
23642;SDS011;11998;55.788;37.572;2023-06-10T00:55:46;7.00;;;4.70;;
23642;SDS011;11998;55.788;37.572;2023-06-10T00:56:47;5.77;;;4.17;;
23642;SDS011;11998;55.788;37.572;2023-06-10T00:57:48;4.33;;;3.80;;
23642;SDS011;11998;55.788;37.572;2023-06-10T00:58:50;3.70;;;3.40;;
23642;SDS011;11998;55.788;37.572;2023-06-10T00:59:51;3.90;;;3.50;;
23642;SDS011;11998;55.788;37.572;2023-06-10T01:00:52;4.07;;;3.57;;
23642;SDS011;11998;55.788;37.572;2023-06-10T01:01:53;5.93;;;3.67;;
23642;SDS011;11998;55.788;37.572;2023-06-10T01:02:54;4.63;;;3.73;;
23642;SDS011;11998;55.788;37.572;2023-06-10T01:03:55;6.23;;;3.63;;
23642;SDS011;11998;55.788;37.572;2023-06-10T01:04:59;4.10;;;3.40;;
23642;SDS011;11998;55.788;37.572;2023-06-10T01:09:15;3.97;;;3.07;;
23642;SDS011;11998;55.788;37.572;2023-06-10T01:10:25;3.47;;;2.80;;
23642;SDS011;11998;55.788;37.572;2023-06-10T01:11:36;3.83;;;3.33;;
23642;SDS011;11998;55.788;37.572;2023-06-10T01:12:55;4.10;;;3.17;;
23642;SDS011;11998;55.788;37.572;2023-06-10T01:14:02;4.43;;;2.90;;
23642;SDS011;11998;55.788;37.572;2023-06-10T01:15:05;4.73;;;2.80;;
23642;SDS011;11998;55.788;37.572;2023-06-10T01:16:06;4.80;;;3.10;;
23642;SDS011;11998;55.788;37.572;2023-06-10T01:17:07;4.03;;;3.40;;
23642;SDS011;11998;55.788;37.572;2023-06-10T01:18:09;2.83;;;2.60;;
23642;SDS011;11998;55.788;37.572;2023-06-10T01:19:15;6.03;;;3.30;;
23642;SDS011;11998;55.788;37.572;2023-06-10T01:20:17;4.30;;;3.33;;
23642;SDS011;11998;55.788;37.572;2023-06-10T01:21:19;9.90;;;3.30;;
23642;SDS011;11998;55.788;37.572;2023-06-10T01:22:25;3.10;;;2.60;;
23642;SDS011;11998;55.788;37.572;2023-06-10T01:23:28;3.57;;;3.10;;
23642;SDS011;11998;55.788;37.572;2023-06-10T01:24:29;5.47;;;3.17;;
23642;SDS011;11998;55.788;37.572;2023-06-10T01:25:33;6.23;;;2.77;;
23642;SDS011;11998;55.788;37.572;2023-06-10T01:26:36;3.97;;;3.00;;
23642;SDS011;11998;55.788;37.572;2023-06-10T01:27:37;4.33;;;2.70;;
23642;SDS011;11998;55.788;37.572;2023-06-10T01:29:24;3.13;;;2.83;;
23642;SDS011;11998;55.788;37.572;2023-06-10T01:30:15;6.20;;;3.20;;
23642;SDS011;11998;55.788;37.572;2023-06-10T01:31:22;3.77;;;3.30;;
23642;SDS011;11998;55.788;37.572;2023-06-10T01:32:47;7.67;;;3.33;;
23642;SDS011;11998;55.788;37.572;2023-06-10T01:33:51;9.37;;;3.37;;
23642;SDS011;11998;55.788;37.572;2023-06-10T01:34:52;6.30;;;3.23;;
23642;SDS011;11998;55.788;37.572;2023-06-10T01:35:59;5.60;;;3.50;;
23642;SDS011;11998;55.788;37.572;2023-06-10T01:37:01;5.70;;;3.30;;
23642;SDS011;11998;55.788;37.572;2023-06-10T01:38:03;6.47;;;3.53;;
23642;SDS011;11998;55.788;37.572;2023-06-10T01:39:05;5.60;;;3.20;;
23642;SDS011;11998;55.788;37.572;2023-06-10T01:40:08;5.03;;;3.50;;
23642;SDS011;11998;55.788;37.572;2023-06-10T01:41:10;3.53;;;3.00;;
23642;SDS011;11998;55.788;37.572;2023-06-10T01:42:13;6.67;;;3.20;;
23642;SDS011;11998;55.788;37.572;2023-06-10T01:43:15;5.00;;;3.30;;
23642;SDS011;11998;55.788;37.572;2023-06-10T01:44:19;5.00;;;2.90;;
23642;SDS011;11998;55.788;37.572;2023-06-10T01:45:23;8.60;;;3.33;;
23642;SDS011;11998;55.788;37.572;2023-06-10T01:46:24;6.07;;;3.00;;
23642;SDS011;11998;55.788;37.572;2023-06-10T01:47:24;7.07;;;2.90;;
23642;SDS011;11998;55.788;37.572;2023-06-10T01:48:25;3.40;;;2.67;;
23642;SDS011;11998;55.788;37.572;2023-06-10T01:49:25;4.23;;;2.80;;
23642;SDS011;11998;55.788;37.572;2023-06-10T01:50:26;3.67;;;3.30;;
23642;SDS011;11998;55.788;37.572;2023-06-10T01:51:27;5.90;;;3.50;;
23642;SDS011;11998;55.788;37.572;2023-06-10T01:52:28;4.97;;;3.50;;
23642;SDS011;11998;55.788;37.572;2023-06-10T01:53:28;5.33;;;3.00;;
23642;SDS011;11998;55.788;37.572;2023-06-10T01:54:29;7.43;;;2.97;;
23642;SDS011;11998;55.788;37.572;2023-06-10T01:55:29;3.60;;;3.10;;
23642;SDS011;11998;55.788;37.572;2023-06-10T01:56:30;3.93;;;3.07;;
23642;SDS011;11998;55.788;37.572;2023-06-10T01:57:30;5.47;;;3.23;;
23642;SDS011;11998;55.788;37.572;2023-06-10T01:58:31;5.50;;;3.00;;
23642;SDS011;11998;55.788;37.572;2023-06-10T01:59:31;5.00;;;2.80;;
23642;SDS011;11998;55.788;37.572;2023-06-10T02:00:32;5.30;;;2.90;;
23642;SDS011;11998;55.788;37.572;2023-06-10T02:01:33;6.83;;;3.10;;
23642;SDS011;11998;55.788;37.572;2023-06-10T02:02:33;3.57;;;3.00;;
23642;SDS011;11998;55.788;37.572;2023-06-10T02:03:35;4.77;;;3.57;;
23642;SDS011;11998;55.788;37.572;2023-06-10T02:04:36;10.20;;;3.53;;
23642;SDS011;11998;55.788;37.572;2023-06-10T02:05:37;3.27;;;2.80;;
23642;SDS011;11998;55.788;37.572;2023-06-10T02:06:38;4.13;;;3.10;;
23642;SDS011;11998;55.788;37.572;2023-06-10T02:07:38;4.70;;;3.57;;
23642;SDS011;11998;55.788;37.572;2023-06-10T02:08:38;5.77;;;3.00;;
23642;SDS011;11998;55.788;37.572;2023-06-10T02:09:39;3.27;;;2.93;;
23642;SDS011;11998;55.788;37.572;2023-06-10T02:10:39;4.30;;;3.10;;
23642;SDS011;11998;55.788;37.572;2023-06-10T02:11:40;6.40;;;3.50;;
23642;SDS011;11998;55.788;37.572;2023-06-10T02:12:41;3.97;;;2.83;;
23642;SDS011;11998;55.788;37.572;2023-06-10T02:13:41;6.23;;;3.30;;
23642;SDS011;11998;55.788;37.572;2023-06-10T02:14:42;6.87;;;3.53;;
23642;SDS011;11998;55.788;37.572;2023-06-10T02:15:42;3.20;;;2.90;;
23642;SDS011;11998;55.788;37.572;2023-06-10T02:16:43;3.83;;;3.10;;
23642;SDS011;11998;55.788;37.572;2023-06-10T02:17:45;4.57;;;2.77;;
23642;SDS011;11998;55.788;37.572;2023-06-10T02:18:46;3.13;;;2.83;;
23642;SDS011;11998;55.788;37.572;2023-06-10T02:19:47;4.90;;;3.10;;
23642;SDS011;11998;55.788;37.572;2023-06-10T02:20:52;4.90;;;3.20;;
23642;SDS011;11998;55.788;37.572;2023-06-10T02:21:53;4.73;;;3.10;;
23642;SDS011;11998;55.788;37.572;2023-06-10T02:22:53;4.77;;;3.10;;
23642;SDS011;11998;55.788;37.572;2023-06-10T02:23:54;7.63;;;2.93;;
23642;SDS011;11998;55.788;37.572;2023-06-10T02:24:54;5.70;;;3.40;;
23642;SDS011;11998;55.788;37.572;2023-06-10T02:25:55;6.60;;;3.60;;
23642;SDS011;11998;55.788;37.572;2023-06-10T02:26:55;6.00;;;3.27;;
23642;SDS011;11998;55.788;37.572;2023-06-10T02:27:56;5.23;;;3.00;;
23642;SDS011;11998;55.788;37.572;2023-06-10T02:28:57;4.13;;;2.97;;
23642;SDS011;11998;55.788;37.572;2023-06-10T02:29:57;4.40;;;3.03;;
23642;SDS011;11998;55.788;37.572;2023-06-10T02:30:58;4.90;;;2.70;;
23642;SDS011;11998;55.788;37.572;2023-06-10T02:31:59;6.37;;;2.90;;
23642;SDS011;11998;55.788;37.572;2023-06-10T02:32:59;4.23;;;3.00;;
23642;SDS011;11998;55.788;37.572;2023-06-10T02:34:01;9.83;;;3.00;;
23642;SDS011;11998;55.788;37.572;2023-06-10T02:35:03;3.77;;;2.90;;
23642;SDS011;11998;55.788;37.572;2023-06-10T02:36:04;8.10;;;3.23;;
23642;SDS011;11998;55.788;37.572;2023-06-10T02:37:05;5.20;;;3.03;;
23642;SDS011;11998;55.788;37.572;2023-06-10T02:38:05;8.43;;;3.10;;
23642;SDS011;11998;55.788;37.572;2023-06-10T02:39:06;2.97;;;2.67;;
23642;SDS011;11998;55.788;37.572;2023-06-10T02:40:07;3.23;;;2.70;;
23642;SDS011;11998;55.788;37.572;2023-06-10T02:41:08;4.57;;;3.03;;
23642;SDS011;11998;55.788;37.572;2023-06-10T02:42:09;4.53;;;3.20;;
23642;SDS011;11998;55.788;37.572;2023-06-10T02:43:10;3.23;;;2.93;;
23642;SDS011;11998;55.788;37.572;2023-06-10T02:44:11;3.23;;;2.90;;
23642;SDS011;11998;55.788;37.572;2023-06-10T02:45:11;5.07;;;2.90;;
23642;SDS011;11998;55.788;37.572;2023-06-10T02:46:12;4.47;;;3.20;;
23642;SDS011;11998;55.788;37.572;2023-06-10T02:47:12;6.13;;;2.90;;
23642;SDS011;11998;55.788;37.572;2023-06-10T02:48:13;4.00;;;2.90;;
23642;SDS011;11998;55.788;37.572;2023-06-10T02:49:14;8.33;;;3.23;;
23642;SDS011;11998;55.788;37.572;2023-06-10T02:50:14;4.83;;;2.87;;
23642;SDS011;11998;55.788;37.572;2023-06-10T02:51:15;7.20;;;3.30;;
23642;SDS011;11998;55.788;37.572;2023-06-10T02:52:16;3.10;;;2.77;;
23642;SDS011;11998;55.788;37.572;2023-06-10T02:53:16;5.73;;;2.87;;
23642;SDS011;11998;55.788;37.572;2023-06-10T02:54:17;3.13;;;2.63;;
23642;SDS011;11998;55.788;37.572;2023-06-10T02:55:17;4.37;;;2.93;;
23642;SDS011;11998;55.788;37.572;2023-06-10T02:56:18;2.70;;;2.50;;
23642;SDS011;11998;55.788;37.572;2023-06-10T02:57:19;5.60;;;2.90;;
23642;SDS011;11998;55.788;37.572;2023-06-10T02:58:19;3.93;;;2.40;;
23642;SDS011;11998;55.788;37.572;2023-06-10T02:59:21;2.67;;;2.33;;
23642;SDS011;11998;55.788;37.572;2023-06-10T03:00:22;3.47;;;2.63;;
23642;SDS011;11998;55.788;37.572;2023-06-10T03:01:22;2.60;;;2.33;;
23642;SDS011;11998;55.788;37.572;2023-06-10T03:02:23;3.43;;;2.80;;
23642;SDS011;11998;55.788;37.572;2023-06-10T03:03:28;5.27;;;2.43;;
23642;SDS011;11998;55.788;37.572;2023-06-10T03:04:30;2.87;;;2.47;;
23642;SDS011;11998;55.788;37.572;2023-06-10T03:05:31;4.33;;;2.27;;
23642;SDS011;11998;55.788;37.572;2023-06-10T03:06:31;2.43;;;1.97;;
23642;SDS011;11998;55.788;37.572;2023-06-10T03:07:36;6.13;;;2.40;;
23642;SDS011;11998;55.788;37.572;2023-06-10T03:08:37;5.67;;;2.60;;
23642;SDS011;11998;55.788;37.572;2023-06-10T03:09:37;2.77;;;2.30;;
23642;SDS011;11998;55.788;37.572;2023-06-10T03:10:38;7.07;;;2.40;;
23642;SDS011;11998;55.788;37.572;2023-06-10T03:11:39;4.20;;;2.40;;
23642;SDS011;11998;55.788;37.572;2023-06-10T03:12:39;4.13;;;2.50;;
23642;SDS011;11998;55.788;37.572;2023-06-10T03:13:40;5.03;;;2.50;;
23642;SDS011;11998;55.788;37.572;2023-06-10T03:14:40;3.57;;;2.30;;
23642;SDS011;11998;55.788;37.572;2023-06-10T03:15:41;4.43;;;2.30;;
23642;SDS011;11998;55.788;37.572;2023-06-10T03:16:42;5.63;;;2.50;;
23642;SDS011;11998;55.788;37.572;2023-06-10T03:17:42;3.80;;;2.47;;
23642;SDS011;11998;55.788;37.572;2023-06-10T03:18:43;3.67;;;2.33;;
23642;SDS011;11998;55.788;37.572;2023-06-10T03:19:43;2.27;;;2.03;;
23642;SDS011;11998;55.788;37.572;2023-06-10T03:20:44;3.20;;;2.30;;
23642;SDS011;11998;55.788;37.572;2023-06-10T03:21:45;2.70;;;2.30;;
23642;SDS011;11998;55.788;37.572;2023-06-10T03:22:46;3.37;;;1.97;;
23642;SDS011;11998;55.788;37.572;2023-06-10T03:23:46;3.97;;;1.80;;
23642;SDS011;11998;55.788;37.572;2023-06-10T03:24:47;4.53;;;2.13;;
23642;SDS011;11998;55.788;37.572;2023-06-10T03:25:50;4.77;;;2.20;;
23642;SDS011;11998;55.788;37.572;2023-06-10T03:26:50;2.07;;;1.67;;
23642;SDS011;11998;55.788;37.572;2023-06-10T03:27:51;5.30;;;2.10;;
23642;SDS011;11998;55.788;37.572;2023-06-10T03:28:51;4.10;;;2.07;;
23642;SDS011;11998;55.788;37.572;2023-06-10T03:29:52;5.80;;;1.87;;
23642;SDS011;11998;55.788;37.572;2023-06-10T03:30:52;2.60;;;1.73;;
23642;SDS011;11998;55.788;37.572;2023-06-10T03:31:53;4.47;;;1.83;;
23642;SDS011;11998;55.788;37.572;2023-06-10T03:32:53;3.40;;;1.63;;
23642;SDS011;11998;55.788;37.572;2023-06-10T03:33:54;4.63;;;2.30;;
23642;SDS011;11998;55.788;37.572;2023-06-10T03:34:54;2.70;;;2.10;;
23642;SDS011;11998;55.788;37.572;2023-06-10T03:35:57;4.40;;;2.33;;
23642;SDS011;11998;55.788;37.572;2023-06-10T03:36:57;3.33;;;1.73;;
23642;SDS011;11998;55.788;37.572;2023-06-10T03:37:58;4.93;;;1.80;;
23642;SDS011;11998;55.788;37.572;2023-06-10T03:38:59;6.07;;;1.83;;
23642;SDS011;11998;55.788;37.572;2023-06-10T03:39:59;5.73;;;1.90;;
23642;SDS011;11998;55.788;37.572;2023-06-10T03:41:00;2.70;;;1.83;;
23642;SDS011;11998;55.788;37.572;2023-06-10T03:42:00;3.07;;;1.90;;
23642;SDS011;11998;55.788;37.572;2023-06-10T03:43:01;4.73;;;1.80;;
23642;SDS011;11998;55.788;37.572;2023-06-10T03:44:02;5.07;;;2.20;;
23642;SDS011;11998;55.788;37.572;2023-06-10T03:45:02;1.80;;;1.63;;
23642;SDS011;11998;55.788;37.572;2023-06-10T03:46:04;6.47;;;2.80;;
23642;SDS011;11998;55.788;37.572;2023-06-10T03:47:05;3.23;;;1.80;;
23642;SDS011;11998;55.788;37.572;2023-06-10T03:48:05;1.93;;;1.70;;
23642;SDS011;11998;55.788;37.572;2023-06-10T03:49:08;2.10;;;1.90;;
23642;SDS011;11998;55.788;37.572;2023-06-10T03:50:10;2.97;;;1.60;;
23642;SDS011;11998;55.788;37.572;2023-06-10T03:51:11;3.55;;;1.60;;
23642;SDS011;11998;55.788;37.572;2023-06-10T03:52:11;3.25;;;1.60;;
23642;SDS011;11998;55.788;37.572;2023-06-10T03:53:12;2.55;;;1.73;;
23642;SDS011;11998;55.788;37.572;2023-06-10T03:54:13;2.75;;;1.60;;
23642;SDS011;11998;55.788;37.572;2023-06-10T03:55:13;1.73;;;1.63;;
23642;SDS011;11998;55.788;37.572;2023-06-10T03:56:14;2.85;;;1.60;;
23642;SDS011;11998;55.788;37.572;2023-06-10T03:57:14;5.43;;;1.80;;
23642;SDS011;11998;55.788;37.572;2023-06-10T03:58:15;3.45;;;1.90;;
23642;SDS011;11998;55.788;37.572;2023-06-10T03:59:15;5.28;;;1.77;;
23642;SDS011;11998;55.788;37.572;2023-06-10T04:00:16;2.35;;;1.70;;
23642;SDS011;11998;55.788;37.572;2023-06-10T04:01:17;3.88;;;2.05;;
23642;SDS011;11998;55.788;37.572;2023-06-10T04:02:21;3.33;;;2.00;;
23642;SDS011;11998;55.788;37.572;2023-06-10T04:03:21;5.38;;;1.70;;
23642;SDS011;11998;55.788;37.572;2023-06-10T04:04:23;2.20;;;1.75;;
23642;SDS011;11998;55.788;37.572;2023-06-10T04:05:23;2.08;;;1.63;;
23642;SDS011;11998;55.788;37.572;2023-06-10T04:06:24;1.70;;;1.60;;
23642;SDS011;11998;55.788;37.572;2023-06-10T04:07:25;3.65;;;1.63;;
23642;SDS011;11998;55.788;37.572;2023-06-10T04:08:26;3.10;;;1.58;;
23642;SDS011;11998;55.788;37.572;2023-06-10T04:09:26;6.63;;;1.60;;
23642;SDS011;11998;55.788;37.572;2023-06-10T04:10:27;4.45;;;1.60;;
23642;SDS011;11998;55.788;37.572;2023-06-10T04:11:27;4.05;;;1.52;;
23642;SDS011;11998;55.788;37.572;2023-06-10T04:12:28;1.65;;;1.55;;
23642;SDS011;11998;55.788;37.572;2023-06-10T04:13:28;2.50;;;1.63;;
23642;SDS011;11998;55.788;37.572;2023-06-10T04:14:29;1.70;;;1.60;;
23642;SDS011;11998;55.788;37.572;2023-06-10T04:15:30;4.55;;;1.85;;
23642;SDS011;11998;55.788;37.572;2023-06-10T04:16:33;5.13;;;1.65;;
23642;SDS011;11998;55.788;37.572;2023-06-10T04:17:34;1.95;;;1.73;;
23642;SDS011;11998;55.788;37.572;2023-06-10T04:18:35;3.63;;;1.80;;
23642;SDS011;11998;55.788;37.572;2023-06-10T04:19:36;3.95;;;1.48;;
23642;SDS011;11998;55.788;37.572;2023-06-10T04:20:37;2.38;;;1.63;;
23642;SDS011;11998;55.788;37.572;2023-06-10T04:21:37;2.45;;;1.65;;
23642;SDS011;11998;55.788;37.572;2023-06-10T04:22:38;2.97;;;1.88;;
23642;SDS011;11998;55.788;37.572;2023-06-10T04:23:39;4.28;;;1.70;;
23642;SDS011;11998;55.788;37.572;2023-06-10T04:24:39;1.40;;;1.30;;
23642;SDS011;11998;55.788;37.572;2023-06-10T04:25:40;4.28;;;1.48;;
23642;SDS011;11998;55.788;37.572;2023-06-10T04:26:43;3.60;;;1.60;;
23642;SDS011;11998;55.788;37.572;2023-06-10T04:28:01;1.70;;;1.50;;
23642;SDS011;11998;55.788;37.572;2023-06-10T04:29:03;5.38;;;1.70;;
23642;SDS011;11998;55.788;37.572;2023-06-10T04:30:03;1.75;;;1.58;;
23642;SDS011;11998;55.788;37.572;2023-06-10T04:31:04;2.45;;;1.48;;
23642;SDS011;11998;55.788;37.572;2023-06-10T04:32:05;2.95;;;1.55;;
23642;SDS011;11998;55.788;37.572;2023-06-10T04:33:06;3.67;;;1.50;;
23642;SDS011;11998;55.788;37.572;2023-06-10T04:34:09;3.10;;;1.60;;
23642;SDS011;11998;55.788;37.572;2023-06-10T04:35:12;2.72;;;1.63;;
23642;SDS011;11998;55.788;37.572;2023-06-10T04:36:14;2.22;;;1.70;;
23642;SDS011;11998;55.788;37.572;2023-06-10T04:37:14;1.88;;;1.52;;
23642;SDS011;11998;55.788;37.572;2023-06-10T04:38:15;5.03;;;1.75;;
23642;SDS011;11998;55.788;37.572;2023-06-10T04:39:15;2.78;;;1.58;;
23642;SDS011;11998;55.788;37.572;2023-06-10T04:40:17;3.60;;;1.60;;
23642;SDS011;11998;55.788;37.572;2023-06-10T04:41:17;2.38;;;1.50;;
23642;SDS011;11998;55.788;37.572;2023-06-10T04:42:18;2.95;;;1.60;;
23642;SDS011;11998;55.788;37.572;2023-06-10T04:43:19;5.40;;;1.85;;
23642;SDS011;11998;55.788;37.572;2023-06-10T04:44:19;2.45;;;1.80;;
23642;SDS011;11998;55.788;37.572;2023-06-10T04:45:20;5.65;;;1.75;;
23642;SDS011;11998;55.788;37.572;2023-06-10T04:46:20;3.28;;;1.75;;
23642;SDS011;11998;55.788;37.572;2023-06-10T04:47:20;4.43;;;1.95;;
23642;SDS011;11998;55.788;37.572;2023-06-10T04:48:21;2.42;;;1.85;;
23642;SDS011;11998;55.788;37.572;2023-06-10T04:49:23;2.88;;;1.58;;
23642;SDS011;11998;55.788;37.572;2023-06-10T04:50:24;2.10;;;1.90;;
23642;SDS011;11998;55.788;37.572;2023-06-10T04:51:25;5.10;;;1.40;;
23642;SDS011;11998;55.788;37.572;2023-06-10T04:52:26;3.40;;;1.60;;
23642;SDS011;11998;55.788;37.572;2023-06-10T04:53:27;1.88;;;1.70;;
23642;SDS011;11998;55.788;37.572;2023-06-10T04:54:28;3.17;;;1.75;;
23642;SDS011;11998;55.788;37.572;2023-06-10T04:55:29;3.60;;;1.67;;
23642;SDS011;11998;55.788;37.572;2023-06-10T04:56:29;2.13;;;1.33;;
23642;SDS011;11998;55.788;37.572;2023-06-10T04:57:30;2.13;;;1.50;;
23642;SDS011;11998;55.788;37.572;2023-06-10T04:58:31;1.65;;;1.48;;
23642;SDS011;11998;55.788;37.572;2023-06-10T04:59:31;2.72;;;1.60;;
23642;SDS011;11998;55.788;37.572;2023-06-10T05:00:32;4.53;;;1.63;;
23642;SDS011;11998;55.788;37.572;2023-06-10T05:01:32;4.60;;;1.67;;
23642;SDS011;11998;55.788;37.572;2023-06-10T05:02:33;2.42;;;1.50;;
23642;SDS011;11998;55.788;37.572;2023-06-10T05:03:34;1.73;;;1.50;;
23642;SDS011;11998;55.788;37.572;2023-06-10T05:04:34;2.50;;;1.60;;
23642;SDS011;11998;55.788;37.572;2023-06-10T05:05:35;4.65;;;1.63;;
23642;SDS011;11998;55.788;37.572;2023-06-10T05:06:36;4.82;;;1.58;;
23642;SDS011;11998;55.788;37.572;2023-06-10T05:07:37;4.22;;;1.67;;
23642;SDS011;11998;55.788;37.572;2023-06-10T05:08:38;4.28;;;1.60;;
23642;SDS011;11998;55.788;37.572;2023-06-10T05:09:39;3.13;;;1.40;;
23642;SDS011;11998;55.788;37.572;2023-06-10T05:10:39;2.30;;;1.45;;
23642;SDS011;11998;55.788;37.572;2023-06-10T05:11:40;2.38;;;1.40;;
23642;SDS011;11998;55.788;37.572;2023-06-10T05:12:40;3.47;;;1.77;;
23642;SDS011;11998;55.788;37.572;2023-06-10T05:13:41;2.38;;;1.65;;
23642;SDS011;11998;55.788;37.572;2023-06-10T05:14:42;5.15;;;1.65;;
23642;SDS011;11998;55.788;37.572;2023-06-10T05:15:44;2.08;;;1.40;;
23642;SDS011;11998;55.788;37.572;2023-06-10T05:16:47;4.40;;;1.73;;
23642;SDS011;11998;55.788;37.572;2023-06-10T05:17:48;2.88;;;1.50;;
23642;SDS011;11998;55.788;37.572;2023-06-10T05:18:49;2.65;;;1.80;;
23642;SDS011;11998;55.788;37.572;2023-06-10T05:19:51;3.25;;;1.30;;
23642;SDS011;11998;55.788;37.572;2023-06-10T05:20:51;3.03;;;1.67;;
23642;SDS011;11998;55.788;37.572;2023-06-10T05:21:53;2.90;;;1.55;;
23642;SDS011;11998;55.788;37.572;2023-06-10T05:22:54;3.00;;;1.60;;
23642;SDS011;11998;55.788;37.572;2023-06-10T05:23:55;2.00;;;1.30;;
23642;SDS011;11998;55.788;37.572;2023-06-10T05:24:55;1.58;;;1.48;;
23642;SDS011;11998;55.788;37.572;2023-06-10T05:25:56;3.45;;;1.55;;
23642;SDS011;11998;55.788;37.572;2023-06-10T05:26:58;3.83;;;1.70;;
23642;SDS011;11998;55.788;37.572;2023-06-10T05:27:59;4.90;;;1.65;;
23642;SDS011;11998;55.788;37.572;2023-06-10T05:28:59;3.35;;;1.58;;
23642;SDS011;11998;55.788;37.572;2023-06-10T05:30:00;3.30;;;1.60;;
23642;SDS011;11998;55.788;37.572;2023-06-10T05:31:01;3.17;;;1.30;;
23642;SDS011;11998;55.788;37.572;2023-06-10T05:32:01;2.72;;;1.50;;
23642;SDS011;11998;55.788;37.572;2023-06-10T05:33:05;6.38;;;1.42;;
23642;SDS011;11998;55.788;37.572;2023-06-10T05:34:06;2.88;;;1.40;;
23642;SDS011;11998;55.788;37.572;2023-06-10T05:35:06;3.60;;;1.25;;
23642;SDS011;11998;55.788;37.572;2023-06-10T05:36:07;1.90;;;1.40;;
23642;SDS011;11998;55.788;37.572;2023-06-10T05:37:08;6.88;;;1.85;;
23642;SDS011;11998;55.788;37.572;2023-06-10T05:38:08;3.85;;;1.40;;
23642;SDS011;11998;55.788;37.572;2023-06-10T05:39:09;1.42;;;1.33;;
23642;SDS011;11998;55.788;37.572;2023-06-10T05:40:10;5.75;;;1.20;;
23642;SDS011;11998;55.788;37.572;2023-06-10T05:41:11;1.58;;;1.40;;
23642;SDS011;11998;55.788;37.572;2023-06-10T05:42:12;2.30;;;1.13;;
23642;SDS011;11998;55.788;37.572;2023-06-10T05:43:12;2.35;;;1.23;;
23642;SDS011;11998;55.788;37.572;2023-06-10T05:44:13;4.10;;;1.30;;
23642;SDS011;11998;55.788;37.572;2023-06-10T05:45:13;6.88;;;1.40;;
23642;SDS011;11998;55.788;37.572;2023-06-10T05:46:14;2.00;;;1.17;;
23642;SDS011;11998;55.788;37.572;2023-06-10T05:47:14;2.20;;;1.20;;
23642;SDS011;11998;55.788;37.572;2023-06-10T05:48:15;5.15;;;1.30;;
23642;SDS011;11998;55.788;37.572;2023-06-10T05:49:17;5.00;;;1.20;;
23642;SDS011;11998;55.788;37.572;2023-06-10T05:50:17;4.18;;;1.33;;
23642;SDS011;11998;55.788;37.572;2023-06-10T05:51:18;3.80;;;1.35;;
23642;SDS011;11998;55.788;37.572;2023-06-10T05:52:18;4.57;;;1.30;;
23642;SDS011;11998;55.788;37.572;2023-06-10T05:53:19;3.42;;;1.20;;
23642;SDS011;11998;55.788;37.572;2023-06-10T05:54:19;3.05;;;1.38;;
23642;SDS011;11998;55.788;37.572;2023-06-10T05:55:20;2.80;;;1.20;;
23642;SDS011;11998;55.788;37.572;2023-06-10T05:56:20;2.42;;;1.40;;
23642;SDS011;11998;55.788;37.572;2023-06-10T05:57:25;1.50;;;1.40;;
23642;SDS011;11998;55.788;37.572;2023-06-10T05:58:26;3.90;;;1.27;;
23642;SDS011;11998;55.788;37.572;2023-06-10T05:59:26;1.60;;;1.50;;
23642;SDS011;11998;55.788;37.572;2023-06-10T06:00:27;3.25;;;1.73;;
23642;SDS011;11998;55.788;37.572;2023-06-10T06:01:27;1.67;;;1.25;;
23642;SDS011;11998;55.788;37.572;2023-06-10T06:02:28;3.67;;;1.52;;
23642;SDS011;11998;55.788;37.572;2023-06-10T06:03:28;1.67;;;1.38;;
23642;SDS011;11998;55.788;37.572;2023-06-10T06:04:29;3.30;;;1.38;;
23642;SDS011;11998;55.788;37.572;2023-06-10T06:05:30;2.67;;;1.20;;
23642;SDS011;11998;55.788;37.572;2023-06-10T06:06:35;1.70;;;1.35;;
23642;SDS011;11998;55.788;37.572;2023-06-10T06:07:38;2.85;;;1.55;;